Flight Track Log - Related Links

Times and Time Zones

All times are in EDT time to prevent confusion due to time zone crossing. See the ASQ4935 flight status page for this flight to view local times or setup timezone preferences in your user account.

Time Position Orientation Groundspeed Altitude Reporting Facility
EDT Latitude Longitude Course Direction KTS MPH feet Rate Location/Type
01:11PM 33.6500 -84.4667 287° West 169 194 2,500  Level Atlanta TRACON
01:12PM 33.6667 -84.5333 287° West 250 288 3,800 2,158 Climbing Atlanta TRACON
01:13PM 33.7333 -84.5833 328° Northwest 287 330 6,600 2,700 Climbing Atlanta TRACON
01:14PM 33.8167 -84.5667 North 304 350 9,200 2,230 Climbing Atlanta TRACON
01:15PM 33.9269 -84.5069 24° Northeast 322 371 12,100 2,108 Climbing Atlanta Center
01:16PM 34.0189 -84.4522 26° Northeast 354 407 14,400 2,100 Climbing Atlanta Center
01:17PM 34.1047 -84.3950 29° Northeast 349 402 16,300 1,300 Climbing Atlanta Center
01:18PM 34.2092 -84.3328 26° Northeast 382 440 17,000 350 Climbing Atlanta Center
01:19PM 34.3033 -84.2828 24° Northeast 381 438 17,000  Level Atlanta Center
01:20PM 34.3953 -84.2578 13° North 375 432 17,000 500 Level Atlanta Center
01:21PM 34.5078 -84.2303 11° North 385 443 18,000 1,450 Climbing Atlanta Center
01:22PM 34.6206 -84.2053 10° North 403 464 19,900 1,900 Climbing Atlanta Center
01:23PM 34.7397 -84.1778 11° North 403 464 21,800 1,650 Climbing Atlanta Center
01:24PM 34.8586 -84.1475 12° North 417 480 23,200 1,650 Climbing Atlanta Center
01:25PM 34.9733 -84.1225 10° North 417 480 25,100 1,600 Climbing Atlanta Center
01:26PM 35.0903 -84.0947 11° North 417 480 26,400 950 Climbing Atlanta Center
01:27PM 35.2114 -84.0642 12° North 429 494 27,000 300 Climbing Atlanta Center
01:28PM 35.3428 -84.0311 12° North 453 521 27,000  Level Atlanta Center
01:29PM 35.4742 -84.0006 11° North 470 541 27,000  Level Atlanta Center
01:30PM 35.6014 -83.9697 11° North 470 541 27,000 100 Level Atlanta Center
01:31PM 35.7225 -83.9417 11° North 453 521 27,200 800 Climbing Atlanta Center
01:32PM 35.8414 -83.9133 11° North 441 507 28,600 1,200 Climbing Atlanta Center
01:33PM 35.9600 -83.8617 19° North 441 507 29,600 950 Climbing Atlanta Center
01:34PM 36.0747 -83.7894 27° Northeast 448 516 30,500 962 Climbing Atlanta Center
01:35PM 36.1631 -83.7317 28° Northeast 470 541 31,300 1,009 Climbing Indianapolis Center
01:36PM 36.2817 -83.6564 27° Northeast 478 550 32,300 829 Climbing Indianapolis Center
01:37PM 36.4008 -83.5803 27° Northeast 482 555 33,000 339 Climbing Indianapolis Center
01:38PM 36.5247 -83.5014 27° Northeast 498 573 33,000 339 Level Indianapolis Center
01:39PM 36.6503 -83.4219 27° Northeast 502 578 33,700 919 Climbing Indianapolis Center
01:40PM 36.7725 -83.3447 27° Northeast 494 568 34,900 634 Climbing Indianapolis Center
01:41PM 36.9181 -83.2517 27° Northeast 496 571 35,000 49 Climbing Indianapolis Center
01:42PM 37.0486 -83.1669 27° Northeast 516 594 35,000  Level Indianapolis Center
01:43PM 37.1789 -83.0819 27° Northeast 520 598 35,000  Level Indianapolis Center
01:44PM 37.3089 -82.9958 28° Northeast 522 601 35,000  Level Indianapolis Center
01:45PM 37.4361 -82.9128 27° Northeast 514 592 35,000  Level Indianapolis Center
01:46PM 37.5608 -82.8300 28° Northeast 505 581 35,000  Level Indianapolis Center
01:47PM 37.6831 -82.7483 28° Northeast 499 574 35,000  Level Indianapolis Center
01:48PM 37.8056 -82.6667 28° Northeast 496 571 35,000  Level Indianapolis Center
01:49PM 37.9311 -82.5850 27° Northeast 503 579 35,000  Level Indianapolis Center
01:50PM 38.0792 -82.4842 28° Northeast 516 594 35,000  Level Indianapolis Center
01:51PM 38.2058 -82.3983 28° Northeast 522 601 35,000  Level Indianapolis Center
01:53PM 38.3367 -82.3108 28° Northeast 527 606 35,000  Level Indianapolis Center
01:54PM 38.4664 -82.2225 28° Northeast 527 606 35,000 -484 Level Indianapolis Center
01:55PM 38.5969 -82.1356 27° Northeast 526 605 34,000 -968 Descending Indianapolis Center
01:56PM 38.7267 -82.0558 26° Northeast 518 596 33,000 -976 Descending Indianapolis Center
01:57PM 38.8647 -82.0331 North 501 577 32,000 -488 Descending Indianapolis Center
01:58PM 39.0008 -82.0431 357° North 488 562 32,000  Level Indianapolis Center
01:59PM 39.1353 -82.0494 358° North 482 555 32,000 -829 Level Indianapolis Center
02:00PM 39.2719 -82.0569 358° North 488 562 30,300 -2,000 Descending Indianapolis Center
02:01PM 39.4453 -82.0669 357° North 517 595 27,900 -2,129 Descending Indianapolis Center
02:02PM 39.5889 -82.0747 358° North 515 593 25,900 -1,887 Descending Indianapolis Center
02:03PM 39.7233 -82.0817 358° North 505 581 24,000 -2,000 Descending Indianapolis Center
02:04PM 39.8581 -82.0903 357° North 485 558 21,800 -2,244 Descending Indianapolis Center
02:05PM 39.9861 -82.0972 358° North 458 527 19,400 -2,081 Descending Indianapolis Center
02:06PM 40.1069 -82.1053 357° North 434 499 17,500 -2,390 Descending Indianapolis Center
02:07PM 40.2436 -82.1144 357° North 423 487 14,500 -2,537 Descending Indianapolis Center
02:08PM 40.3594 -82.1225 357° North 415 478 12,300 -1,790 Descending Indianapolis Center
02:09PM 40.4558 -82.0644 25° Northeast 387 445 10,800 -1,122 Descending Indianapolis Center
02:10PM 40.4825 -81.9422 74° East 350 403 10,000 -829 Descending Indianapolis Center
02:11PM 40.5458 -81.8694 41° Northeast 309 356 9,100 -484 Descending Indianapolis Center
02:12PM 40.6136 -81.8039 36° Northeast 301 346 9,000 -475 Descending Indianapolis Center
02:13PM 40.6572 -81.7600 37° Northeast 295 339 8,300 -1,333 Descending Cleveland Center
02:14PM 40.7122 -81.6814 47° Northeast 285 328 6,800 -1,400 Descending Cleveland Center
02:15PM 40.7653 -81.5919 52° Northeast 280 322 5,500 -1,450 Descending Cleveland Center
02:16PM 40.8097 -81.5103 54° Northeast 280 322 3,900 -1,250 Descending Cleveland Center
02:17PM 40.8542 -81.4342 52° Northeast 270 311 3,000 -450 Descending Cleveland Center
02:18PM 40.8942 -81.3797 46° Northeast 237 273 3,000 -100 Level Cleveland Center
02:19PM 40.9361 -81.3444 32° Northeast 193 222 2,800 -200 Descending Cleveland Center

Login

Don't have an account? Register now (free) for customized features, flight alerts, and more!